createdAt,value
2017-08-15T00:09:44.849Z,3.30
2017-08-15T00:20:08.292Z,3.72
2017-08-15T00:30:30.230Z,2.93
2017-08-15T00:46:10.309Z,3.58
2017-08-15T00:56:32.061Z,4.10
2017-08-15T01:06:53.989Z,3.20
2017-08-15T01:11:59.811Z,3.30
2017-08-15T01:22:22.193Z,4.43
2017-08-15T01:32:44.133Z,3.87
2017-08-15T01:48:29.771Z,3.60
2017-08-15T01:58:51.682Z,4.30
2017-08-15T02:09:14.558Z,3.20
2017-08-15T02:19:36.344Z,3.10
2017-08-15T02:29:59.454Z,3.90
2017-08-15T02:45:38.114Z,3.40
2017-08-15T02:55:59.967Z,4.15
2017-08-15T03:06:21.622Z,3.20
2017-08-15T03:16:48.301Z,3.27
2017-08-15T03:27:10.162Z,3.80
2017-08-15T03:37:33.028Z,3.67
2017-08-15T03:47:54.981Z,3.23
2017-08-15T03:58:17.646Z,3.97
2017-08-15T04:08:40.679Z,4.77
2017-08-15T04:19:04.046Z,3.50
2017-08-15T04:29:26.707Z,3.27
2017-08-15T04:39:49.743Z,4.17
2017-08-15T04:50:24.463Z,3.70
2017-08-15T05:00:47.082Z,4.30
2017-08-15T05:11:09.742Z,4.67
2017-08-15T05:21:31.618Z,3.37
2017-08-15T05:31:55.085Z,3.90
2017-08-15T05:47:33.683Z,3.50
2017-08-15T05:57:55.472Z,3.77
2017-08-15T06:08:18.108Z,3.10
2017-08-15T06:18:41.101Z,3.33
2017-08-15T06:29:03.487Z,3.70
2017-08-15T06:39:26.100Z,3.30
2017-08-15T06:49:48.731Z,3.60
2017-08-15T07:00:10.945Z,5.65
2017-08-15T07:10:33.453Z,3.37
2017-08-15T07:21:08.806Z,3.30
2017-08-15T07:31:43.565Z,2.70
2017-08-15T07:47:39.084Z,3.00
2017-08-15T07:58:13.721Z,3.37
2017-08-15T08:08:48.447Z,2.75
2017-08-15T08:19:10.158Z,3.10
2017-08-15T08:29:32.707Z,3.03
2017-08-15T08:50:50.781Z,2.93
2017-08-15T09:01:15.392Z,2.50
2017-08-15T09:11:40.628Z,2.35
2017-08-15T09:22:02.335Z,3.60
2017-08-15T09:32:28.788Z,3.20
2017-08-15T09:48:21.804Z,3.00
2017-08-15T09:59:01.702Z,2.57
2017-08-15T10:09:36.237Z,3.20
2017-08-15T10:20:12.024Z,2.50
2017-08-15T10:30:41.005Z,2.70
2017-08-15T10:46:37.717Z,2.73
2017-08-15T10:57:04.491Z,2.20
2017-08-15T11:18:22.604Z,2.20
2017-08-15T11:39:43.051Z,1.80
2017-08-15T11:50:07.508Z,1.93
2017-08-15T12:00:32.001Z,2.60
2017-08-15T12:10:55.321Z,2.30
2017-08-15T12:21:29.720Z,2.60
2017-08-15T12:32:04.056Z,2.20
2017-08-15T12:53:23.542Z,3.20
2017-08-15T12:58:30.085Z,1.90
2017-08-15T13:09:04.012Z,2.00
2017-08-15T13:14:09.831Z,1.90
2017-08-15T13:24:43.271Z,2.43
2017-08-15T13:29:49.084Z,1.77
2017-08-15T13:45:43.930Z,2.40
2017-08-15T13:56:18.322Z,2.70
2017-08-15T14:06:42.470Z,2.80
2017-08-15T14:17:08.870Z,2.70
2017-08-15T14:27:42.824Z,3.30
2017-08-15T14:38:16.432Z,3.10
2017-08-15T15:37:18.199Z,3.50
2017-08-15T15:47:39.713Z,3.60
2017-08-15T15:58:14.093Z,3.20
2017-08-15T16:08:48.820Z,3.27
2017-08-15T16:13:54.642Z,3.60
2017-08-15T16:24:16.844Z,3.40
2017-08-15T16:34:38.866Z,3.27
2017-08-15T16:50:23.297Z,3.20
2017-08-15T17:00:46.669Z,3.70
2017-08-15T17:11:08.991Z,3.70
2017-08-15T17:21:30.615Z,3.60
2017-08-15T17:31:53.341Z,3.90
2017-08-15T17:47:35.802Z,4.20
2017-08-15T17:57:59.363Z,4.60
2017-08-15T18:08:21.721Z,4.43
2017-08-15T18:18:43.218Z,4.73
2017-08-15T18:29:05.680Z,4.60
2017-08-15T18:39:27.804Z,4.10
2017-08-15T18:49:49.340Z,3.83
2017-08-15T19:00:12.179Z,5.05
2017-08-15T19:11:40.000Z,5.40
2017-08-15T19:22:03.328Z,5.25
2017-08-15T19:32:26.031Z,5.55
2017-08-15T19:48:05.589Z,5.20
2017-08-15T19:58:28.976Z,5.90
2017-08-15T20:08:50.714Z,6.12
2017-08-15T20:19:13.398Z,5.60
2017-08-15T20:29:36.123Z,5.78
2017-08-15T20:39:58.886Z,5.95
2017-08-15T20:50:53.693Z,5.53
2017-08-15T21:01:15.804Z,5.50
2017-08-15T21:11:38.264Z,5.30
2017-08-15T21:22:00.089Z,6.45
2017-08-15T21:32:22.774Z,5.90
2017-08-15T21:48:02.520Z,5.53
2017-08-15T21:58:25.973Z,6.45
2017-08-15T22:08:48.581Z,6.40
2017-08-15T22:21:55.811Z,6.23
2017-08-15T22:32:18.695Z,6.60
2017-08-15T22:47:58.452Z,7.00
2017-08-15T22:58:20.275Z,10.25
2017-08-15T23:08:42.889Z,10.00
2017-08-15T23:13:48.672Z,11.63
2017-08-15T23:24:11.285Z,12.00
2017-08-15T23:34:33.895Z,13.68
2017-08-15T23:50:13.375Z,15.23
